Calgary, Canada
Current Conditions -  °F | °C
As of 9:00 AM on Thursday 18 Dec 2014 (Local Time) from CYYC Reporting Station
Broken Clouds Broken Clouds  
Wind Chill: -4°   Ceiling: 14000
Heat Index: -4°   Visibility: 40mi
Dew Point: -8°   Wind: 2mph
Humidity: 74%   Direction: NA
Pressure: 29.8"   Gusts: NA
Location:  51.05°N, 114.06°W
Report Text: CYYC 181600Z VRB02KT 40SM BKN140 BKN280 M04/M08 A2980 RMK AC5CI2 SLP144
Loading
Personal Weather Stations






























Interactive Weather Map New forecast layout! Learn more

10-Day Weather Forecast

Advertisements
Track Severe Weather on mobile